Glade, Kansas
Current Conditions -  °F | °C
As of 12:53 AM on Sunday 26 Oct 2014 (Local Time) from KHLC Reporting Station
Clear Clear  
Wind Chill: 60°   Ceiling: Unl
Heat Index: 60°   Visibility: 10mi
Dew Point: 49°   Wind: 5mph
Humidity: 67%   Direction: 110°ESE
Pressure: 29.88"   Gusts: NA
Location:  39.68°N, 99.31°W
Report Text: KHLC 260553Z AUTO 11004KT 10SM CLR 16/09 A2988 RMK AO2 SLP100 T01560094 10244 20156 403110056 58015
Loading
Personal Weather Stations






























Interactive Weather Map
Tropical Storm Tracking
New forecast layout! Learn more

10-Day Weather Forecast

Advertisements
Track Severe Weather on mobile